M I D A S
Marine Information and Data Acquisition System
Tripno 2328 of the Zeeleeuw from 2012-06-13 06:36:32 to 2012-06-13 15:00:56
Back to CruiseResearch ActivitiesStationsMapUnderway DataData graphs

EquipmentUnitsComment
TimeDGPSUTC
LatitudeDGPSDM.mWGS84
LongitudeDGPSDM.mWGS84
HeadingGyrodeg 
SOGDGPSknotsSpeed over ground
COGDGPSdegCourse over ground
DepthEcho soundermeters200 kHz
Missing or incorrect values are displayed as -999
Navigation data collected by the RV Zeeleeuw from 2012-06-13 06:15:50 to 2012-06-13 15:20:09
Time Latitude Longitude Heading SOG COG Depth
2012-06-13 06:16:55 51°13.641 2°55.96 110.4 2.2 286 -999
2012-06-13 06:17:54 51°13.66 2°55.88 119.5 4 296 -999
2012-06-13 06:18:54 51°13.699 2°55.784 130.5 4.6 309 -999
2012-06-13 06:19:53 51°13.753 2°55.69 140.5 5.1 319 -999
2012-06-13 06:20:54 51°13.831 2°55.615 158.1 5.1 337 -999
2012-06-13 06:21:54 51°13.908 2°55.609 204.7 4.6 24 -999
2012-06-13 06:22:54 51°13.948 2°55.659 233.5 0.3 316 -999
2012-06-13 06:23:54 51°13.976 2°55.585 321.1 5.8 319 13.2
2012-06-13 06:24:55 51°14.086 2°55.471 330.3 8.6 328 -999
2012-06-13 06:25:54 51°14.211 2°55.35 331.6 9.2 329 -999
2012-06-13 06:26:54 51°14.349 2°55.212 329.2 10 327 -999
2012-06-13 06:27:55 51°14.49 2°55.057 328.4 10.1 327 -999
2012-06-13 06:28:53 51°14.637 2°54.937 331.8 10.2 334 13.9
2012-06-13 06:29:51 51°14.771 2°54.794 318.4 10 323 13.3
2012-06-13 06:30:51 51°14.91 2°54.64 323 10.2 326 13.8
2012-06-13 06:31:50 51°15.051 2°54.54 353.7 7.5 2 12.1
2012-06-13 06:32:51 51°15.123 2°54.581 32.8 2.6 41 11.4
2012-06-13 06:33:51 51°15.135 2°54.613 78.5 1.1 63 10.8
2012-06-13 06:34:51 51°15.152 2°54.677 56.6 3.9 57 11.2
2012-06-13 06:35:51 51°15.208 2°54.716 340.5 3.5 349 11.2
2012-06-13 06:36:51 51°15.257 2°54.635 299.1 6 308 11.7
2012-06-13 06:37:51 51°15.347 2°54.516 320.8 7.6 327 11.7
2012-06-13 06:38:51 51°15.458 2°54.406 322.6 8 328 12.2
2012-06-13 06:39:51 51°15.569 2°54.289 320.4 7.9 325 12.5
2012-06-13 06:40:51 51°15.673 2°54.163 315.8 7.7 318 12.9
2012-06-13 06:41:51 51°15.762 2°54.014 306.6 7.7 311 12.9
2012-06-13 06:42:50 51°15.842 2°53.858 305.7 7.7 310 13.4
2012-06-13 06:43:51 51°15.931 2°53.702 309.4 7.8 314 13.5
2012-06-13 06:44:51 51°16.022 2°53.556 311.5 7.8 315 13.9
2012-06-13 06:45:50 51°16.112 2°53.409 309.9 7.8 313 14.2
2012-06-13 06:46:50 51°16.2 2°53.252 307.5 7.9 310 14.2
2012-06-13 06:47:51 51°16.296 2°53.107 319.9 8 325 15
2012-06-13 06:48:51 51°16.409 2°52.994 324.4 8.1 328 14.7
2012-06-13 06:49:50 51°16.525 2°52.893 331.1 8.2 336 14.6
2012-06-13 06:50:51 51°16.655 2°52.81 334 8.2 338 13.7
2012-06-13 06:51:50 51°16.777 2°52.724 330.2 8.1 335 12.5
2012-06-13 06:52:51 51°16.9 2°52.625 328.3 8.1 332 12.6
2012-06-13 06:53:50 51°17.018 2°52.524 329.1 8.1 333 12.4
2012-06-13 06:54:51 51°17.143 2°52.431 334.3 8.2 338 12.5
2012-06-13 06:55:50 51°17.301 2°52.329 335.7 11.8 338 12.9
2012-06-13 06:56:50 51°17.48 2°52.191 329.1 12 331 14.2
2012-06-13 06:57:50 51°17.648 2°52.024 323.3 11.8 324 13.2
2012-06-13 06:58:50 51°17.806 2°51.84 325.2 11.8 326 12.6
2012-06-13 06:59:51 51°17.974 2°51.663 323.1 11.8 324 12.9
2012-06-13 07:00:50 51°18.138 2°51.496 326.9 11.9 327 13.9
2012-06-13 07:01:51 51°18.307 2°51.324 328.1 11.7 328 15.3
2012-06-13 07:02:50 51°18.472 2°51.161 325.6 11.8 326 16.5
2012-06-13 07:03:50 51°18.636 2°50.984 325.6 12 325 17.2
2012-06-13 07:04:50 51°18.798 2°50.805 325.1 12 327 17.2
2012-06-13 07:05:51 51°18.974 2°50.643 328 12 329 16.9
2012-06-13 07:06:50 51°19.141 2°50.481 326.6 12 329 15.9
2012-06-13 07:07:51 51°19.306 2°50.296 323.1 11.7 324 14.4
2012-06-13 07:08:51 51°19.471 2°50.125 327.8 11.8 329 14.2
2012-06-13 07:09:50 51°19.632 2°49.959 323.9 11.7 325 16.7
2012-06-13 07:10:51 51°19.795 2°49.782 327 11.6 328 17.5
2012-06-13 07:11:50 51°19.961 2°49.628 328.3 11.7 329 20.1
2012-06-13 07:12:51 51°20.129 2°49.458 327.6 11.9 328 22.8
2012-06-13 07:13:50 51°20.292 2°49.292 326.3 11.8 329 24.4
2012-06-13 07:14:50 51°20.456 2°49.124 325.9 11.7 327 24.7
2012-06-13 07:15:51 51°20.625 2°48.951 326 11.9 329 25.2
2012-06-13 07:16:50 51°20.79 2°48.789 327.1 11.9 328 24.8
2012-06-13 07:17:51 51°20.963 2°48.62 325.2 12 327 23
2012-06-13 07:18:50 51°21.128 2°48.45 323.8 12 326 22.8
2012-06-13 07:19:50 51°21.294 2°48.273 325.6 12.1 328 23.5
2012-06-13 07:20:50 51°21.468 2°48.109 329.4 12.1 331 25.4
2012-06-13 07:21:50 51°21.643 2°47.954 328.5 11.8 329 25.6
2012-06-13 07:22:51 51°21.807 2°47.776 322.2 11.6 324 26
2012-06-13 07:23:51 51°21.966 2°47.598 323 11.6 326 26
2012-06-13 07:24:51 51°22.133 2°47.436 329.6 11.8 332 25.8
2012-06-13 07:25:50 51°22.302 2°47.283 325.3 11.9 328 21.7
2012-06-13 07:26:51 51°22.471 2°47.114 328.2 11.9 331 20.8
2012-06-13 07:27:50 51°22.64 2°46.957 326.1 11.9 329 20.9
2012-06-13 07:28:51 51°22.809 2°46.781 323.7 12 327 23.4
2012-06-13 07:29:50 51°22.976 2°46.62 329.2 11.9 333 25.2
2012-06-13 07:30:51 51°23.148 2°46.449 321.9 11.9 326 25
2012-06-13 07:31:50 51°23.289 2°46.244 303.4 11.4 305 27.5
2012-06-13 07:32:50 51°23.395 2°45.99 304.2 11.5 308 28.2
2012-06-13 07:33:51 51°23.524 2°45.748 310.4 11.9 313 28.6
2012-06-13 07:34:51 51°23.656 2°45.517 309.2 11.7 312 29.2
2012-06-13 07:35:50 51°23.786 2°45.288 311.3 11.9 314 29.4
2012-06-13 07:36:50 51°23.917 2°45.056 306.5 11.7 309 29.1
2012-06-13 07:37:50 51°24.034 2°44.807 303.6 11.8 306 29.3
2012-06-13 07:38:50 51°24.152 2°44.559 306.1 11.7 307 28.8
2012-06-13 07:39:51 51°24.268 2°44.318 304.1 9.1 308 25
2012-06-13 07:40:50 51°24.33 2°44.183 302.1 5.2 309 28.6
2012-06-13 07:41:50 51°24.381 2°44.094 308.4 4.2 315 29.1
2012-06-13 07:42:50 51°24.432 2°44.025 309.9 3.7 320 27.8
2012-06-13 07:43:51 51°24.476 2°43.956 302.2 3.6 311 28.2
2012-06-13 07:44:50 51°24.509 2°43.881 293.4 3.5 306 27.9
2012-06-13 07:45:50 51°24.549 2°43.815 316.5 3.5 327 27.8
2012-06-13 07:46:51 51°24.598 2°43.763 310.7 3.4 321 27.3
2012-06-13 07:47:50 51°24.631 2°43.712 298.6 2.1 319 23.3
2012-06-13 07:48:51 51°24.65 2°43.695 310.3 1.1 350 23.3
2012-06-13 07:49:50 51°24.664 2°43.698 319.4 0.6 65 23.9
2012-06-13 07:50:51 51°24.668 2°43.715 311.2 0.7 76 22.9
2012-06-13 07:51:50 51°24.67 2°43.732 296.6 0.6 78 25.9
2012-06-13 07:52:51 51°24.673 2°43.752 280.9 0.8 80 25.2
2012-06-13 07:53:50 51°24.677 2°43.771 268.6 0.2 85 24.4
2012-06-13 07:54:50 51°24.673 2°43.752 246.3 1.1 250 25
2012-06-13 07:55:51 51°24.672 2°43.725 270.7 1.2 289 23.3
2012-06-13 07:56:50 51°24.677 2°43.697 263.6 0.6 273 25.9
2012-06-13 07:57:51 51°24.684 2°43.694 281.1 0.5 28 26.2
2012-06-13 07:58:51 51°24.69 2°43.71 290 0.9 78 26.3
2012-06-13 07:59:51 51°24.692 2°43.74 280.9 1.3 80 25.2
2012-06-13 08:00:51 51°24.695 2°43.764 254.8 0.3 81 23.9
2012-06-13 08:01:51 51°24.678 2°43.752 209.8 3.1 199 25
2012-06-13 08:02:50 51°24.65 2°43.688 271.1 2.6 276 23.9
2012-06-13 08:03:51 51°24.658 2°43.683 299.3 0.9 74 23.1
2012-06-13 08:04:54 51°24.661 2°43.705 285.7 0.6 99 -999
2012-06-13 08:05:52 51°24.665 2°43.719 275.1 0.5 68 26.1
2012-06-13 08:06:51 51°24.668 2°43.727 276.8 0.4 45 25.8
2012-06-13 08:07:50 51°24.672 2°43.717 253.9 0.8 260 22.4
2012-06-13 08:08:50 51°24.673 2°43.713 251.2 0.5 98 25.7
2012-06-13 08:09:50 51°24.678 2°43.722 261.3 0.5 58 24.9
2012-06-13 08:10:50 51°24.683 2°43.727 268.4 0.8 281 25.6
2012-06-13 08:11:51 51°24.68 2°43.697 243.9 1 234 25.9
2012-06-13 08:12:50 51°24.678 2°43.686 250.9 0.2 298 24.2
2012-06-13 08:13:51 51°24.681 2°43.692 263.4 0.8 53 24.8
2012-06-13 08:14:50 51°24.686 2°43.712 258.6 0.7 68 25.7
2012-06-13 08:15:51 51°24.69 2°43.732 256.3 0.9 58 25.7
2012-06-13 08:16:50 51°24.69 2°43.737 239.8 1.3 235 25.4
2012-06-13 08:17:50 51°24.664 2°43.717 221.4 1.7 217 26.9
2012-06-13 08:18:51 51°24.658 2°43.698 256.4 0.2 357 22.8
2012-06-13 08:19:50 51°24.662 2°43.703 271.9 0.3 42 24.6
2012-06-13 08:20:51 51°24.668 2°43.71 283 0.4 60 22.6
2012-06-13 08:21:50 51°24.675 2°43.722 286 0.6 51 22.9
2012-06-13 08:22:51 51°24.68 2°43.737 282.9 0.5 73 24.9
2012-06-13 08:23:50 51°24.685 2°43.752 276.1 0.6 66 24.6
2012-06-13 08:24:50 51°24.688 2°43.769 266.2 0.8 76 23.5
2012-06-13 08:25:50 51°24.691 2°43.787 257.8 0.8 99 23.4
2012-06-13 08:26:51 51°24.694 2°43.805 255.6 0.7 92 27.1
2012-06-13 08:27:51 51°24.697 2°43.823 255.1 0.7 69 26.6
2012-06-13 08:28:50 51°24.701 2°43.842 256.3 0.8 65 27
2012-06-13 08:29:51 51°24.704 2°43.86 256.5 0.8 90 26.7
2012-06-13 08:30:50 51°24.706 2°43.868 261.2 0.3 281 26
2012-06-13 08:31:51 51°24.718 2°43.848 297.5 1.6 313 26
2012-06-13 08:32:50 51°24.758 2°43.83 351.6 3.5 3 25.8
2012-06-13 08:33:50 51°24.836 2°43.873 12.6 7.3 14 26
2012-06-13 08:34:50 51°24.988 2°43.884 356.2 11 359 23.1
2012-06-13 08:35:50 51°25.181 2°43.978 23.7 12.8 26 23.3
2012-06-13 08:36:50 51°25.373 2°44.125 26.3 12.8 27 25.9
2012-06-13 08:37:50 51°25.554 2°44.304 40.3 12.8 41 25.6
2012-06-13 08:38:51 51°25.711 2°44.542 48 12.7 48 25
2012-06-13 08:39:50 51°25.858 2°44.775 44.2 12.8 43 25.9
2012-06-13 08:40:51 51°26.022 2°45.001 41.5 12.8 41 28.8
2012-06-13 08:41:50 51°26.181 2°45.216 41.9 12.7 41 29.3
2012-06-13 08:42:51 51°26.339 2°45.454 46.7 12.9 44 29.6
2012-06-13 08:43:50 51°26.498 2°45.675 40.8 12.7 37 30.1
2012-06-13 08:44:51 51°26.673 2°45.875 37.1 12.8 35 30.8
2012-06-13 08:45:51 51°26.842 2°46.083 40.6 12.8 39 33.5
2012-06-13 08:46:50 51°27.008 2°46.287 39.5 12.6 38 32.8
2012-06-13 08:47:51 51°27.181 2°46.492 36.5 12.8 35 31.4
2012-06-13 08:48:51 51°27.351 2°46.698 39.8 12.8 39 33.2
2012-06-13 08:49:51 51°27.517 2°46.915 39.6 12.9 39 32.9
2012-06-13 08:50:51 51°27.685 2°47.125 40.2 12.9 38 32.5
2012-06-13 08:51:50 51°27.855 2°47.327 37.1 13 36 33.6
2012-06-13 08:52:50 51°28.025 2°47.544 42.1 12.9 40 33.2
2012-06-13 08:53:51 51°28.195 2°47.766 39.1 13 36 34
2012-06-13 08:54:51 51°28.374 2°47.966 37.4 13.1 36 34.5
2012-06-13 08:55:50 51°28.545 2°48.171 38.3 13.1 36 34.2
2012-06-13 08:56:51 51°28.721 2°48.387 41.1 13.2 40 33.8
2012-06-13 08:57:51 51°28.89 2°48.612 39.8 13.1 39 30.5
2012-06-13 08:58:50 51°29.056 2°48.83 39.9 13.1 38 29.3
2012-06-13 08:59:50 51°29.229 2°49.044 39 13.2 39 27.9
2012-06-13 09:00:51 51°29.4 2°49.268 41.5 13.1 42 28.9
2012-06-13 09:01:51 51°29.549 2°49.528 50.6 13.2 50 28
2012-06-13 09:02:50 51°29.69 2°49.789 50.1 13.2 47 27.7
2012-06-13 09:03:51 51°29.849 2°50.035 44.4 13.2 43 28.8
2012-06-13 09:04:50 51°30.001 2°50.276 47.4 13 47 26.8
2012-06-13 09:05:51 51°30.156 2°50.529 46.8 13 44 24.2
2012-06-13 09:06:50 51°30.311 2°50.769 49.4 13.1 45 23.1
2012-06-13 09:07:50 51°30.459 2°51.023 49.4 13.1 47 23.2
2012-06-13 09:08:50 51°30.613 2°51.269 46.5 13.1 44 23.3
2012-06-13 09:09:51 51°30.773 2°51.517 47.1 13.2 45 23.9
2012-06-13 09:10:51 51°30.928 2°51.767 51.3 13.3 50 22.7
2012-06-13 09:11:51 51°31.056 2°52.024 54.1 11.5 52 23.9
2012-06-13 09:12:51 51°31.149 2°52.21 54.3 6.7 52 23.9
2012-06-13 09:13:50 51°31.202 2°52.329 62.2 5.2 59 22.2
2012-06-13 09:14:51 51°31.227 2°52.446 84.3 3.2 76 22.7
2012-06-13 09:15:54 51°31.242 2°52.459 108.2 1.1 22 -999
2012-06-13 09:16:53 51°31.256 2°52.462 116.5 0.8 4 22.6
2012-06-13 09:17:53 51°31.267 2°52.469 124.2 0.6 23 22.8
2012-06-13 09:18:51 51°31.273 2°52.485 134 0.8 74 22.6
2012-06-13 09:19:51 51°31.273 2°52.504 154.7 0.8 107 21.2
2012-06-13 09:20:51 51°31.262 2°52.521 176.8 1 147 21.2
2012-06-13 09:21:51 51°31.249 2°52.529 195.9 0.7 178 21
2012-06-13 09:22:51 51°31.24 2°52.527 217.6 0.3 204 21.5
2012-06-13 09:23:51 51°31.239 2°52.527 234 0.1 97 21.3
2012-06-13 09:24:50 51°31.243 2°52.53 245.4 0.2 74 21.2
2012-06-13 09:25:50 51°31.247 2°52.534 253.3 0.3 29 21
2012-06-13 09:26:50 51°31.252 2°52.533 257.9 0.6 334 20.8
2012-06-13 09:27:51 51°31.257 2°52.526 258.8 0.5 320 20.8
2012-06-13 09:28:50 51°31.26 2°52.517 259.4 0.3 289 21.5
2012-06-13 09:29:50 51°31.264 2°52.511 256.7 0.2 334 21.7
2012-06-13 09:30:51 51°31.266 2°52.506 255.3 0.2 324 21.6
2012-06-13 09:31:50 51°31.268 2°52.503 252.9 -999 250 21.9
2012-06-13 09:32:51 51°31.27 2°52.499 252.5 0.4 313 21.8
2012-06-13 09:33:50 51°31.27 2°52.493 247.2 0.2 274 22.2
2012-06-13 09:34:51 51°31.272 2°52.488 241.4 0.3 305 22.5
2012-06-13 09:35:50 51°31.272 2°52.485 237.5 0.1 205 22.8
2012-06-13 09:36:50 51°31.271 2°52.486 235.4 0.3 313 22.3
2012-06-13 09:37:50 51°31.272 2°52.486 237.3 0.3 328 22.2
2012-06-13 09:38:51 51°31.272 2°52.487 238.2 -999 66 22.5
2012-06-13 09:39:51 51°31.271 2°52.487 237.3 0.2 301 22.5
2012-06-13 09:40:51 51°31.272 2°52.487 236.2 0.2 20 22.4
2012-06-13 09:41:50 51°31.271 2°52.487 237 0.1 308 22.2
2012-06-13 09:42:51 51°31.27 2°52.488 236.1 0.1 172 22.8
2012-06-13 09:43:51 51°31.27 2°52.489 235.4 0.1 221 22.3
2012-06-13 09:44:51 51°31.27 2°52.49 237.4 0.2 318 22.4
2012-06-13 09:45:51 51°31.27 2°52.491 236.1 0.1 358 22.1
2012-06-13 09:46:50 51°31.27 2°52.492 237.1 0.2 174 22.2
2012-06-13 09:47:51 51°31.27 2°52.49 236 0.2 269 21.7
2012-06-13 09:48:50 51°31.27 2°52.49 235.4 0.3 331 22.1
2012-06-13 09:49:50 51°31.27 2°52.49 235.4 0.1 112 22.3
2012-06-13 09:50:51 51°31.27 2°52.49 237 -999 230 22.4
2012-06-13 09:51:51 51°31.27 2°52.49 236.1 0.1 214 22.3
2012-06-13 09:52:51 51°31.271 2°52.49 238 0.1 310 22.5
2012-06-13 09:53:50 51°31.272 2°52.49 236 0.1 281 21.9
2012-06-13 09:54:50 51°31.272 2°52.488 238.2 0.4 311 22.2
2012-06-13 09:55:51 51°31.271 2°52.486 236.8 0.1 220 22.4
2012-06-13 09:56:50 51°31.271 2°52.485 236.6 0.1 288 22.3
2012-06-13 09:57:51 51°31.27 2°52.484 239.6 0.2 185 22.4
2012-06-13 09:58:51 51°31.271 2°52.481 238.4 0.1 300 22
2012-06-13 09:59:51 51°31.27 2°52.481 236 0.1 113 22.6
2012-06-13 10:00:51 51°31.27 2°52.481 237.7 0.1 130 22.4
2012-06-13 10:01:51 51°31.271 2°52.482 235.7 0.1 7 22.1
2012-06-13 10:02:51 51°31.271 2°52.483 235 0.1 289 22.2
2012-06-13 10:03:50 51°31.271 2°52.482 236.9 0.1 148 22.1
2012-06-13 10:04:50 51°31.271 2°52.483 238.2 0.3 358 21.9
2012-06-13 10:05:51 51°31.271 2°52.486 236.8 0.1 51 22.5
2012-06-13 10:06:51 51°31.272 2°52.488 237.4 0.1 10 22
2012-06-13 10:07:50 51°31.272 2°52.489 236.5 0.1 8 21.9
2012-06-13 10:08:51 51°31.271 2°52.489 236.7 0.1 306 22
2012-06-13 10:09:50 51°31.272 2°52.489 237.3 0.4 322 21.9
2012-06-13 10:10:50 51°31.271 2°52.488 237.6 0.1 332 22.2
2012-06-13 10:11:51 51°31.271 2°52.487 237.7 0.2 310 22.2
2012-06-13 10:12:50 51°31.271 2°52.487 239.1 0.1 329 21.9
2012-06-13 10:13:50 51°31.271 2°52.487 237.9 0.1 302 22.3
2012-06-13 10:14:50 51°31.271 2°52.487 235.9 0.1 336 22.2
2012-06-13 10:15:51 51°31.271 2°52.486 238.3 0.2 335 22.1
2012-06-13 10:16:50 51°31.271 2°52.485 238.9 0.3 316 22
2012-06-13 10:17:51 51°31.27 2°52.484 238.3 0.4 308 21.6
2012-06-13 10:18:50 51°31.269 2°52.484 239.5 0.3 133 22.2
2012-06-13 10:19:50 51°31.27 2°52.483 239.8 0.1 352 22.1
2012-06-13 10:20:50 51°31.27 2°52.483 240.4 0.1 345 21.9
2012-06-13 10:21:50 51°31.27 2°52.483 238.8 -999 271 21.9
2012-06-13 10:22:51 51°31.27 2°52.484 237.5 0.1 231 21.9
2012-06-13 10:23:50 51°31.27 2°52.485 238.1 0.1 96 22
2012-06-13 10:24:50 51°31.27 2°52.485 236.7 0.1 106 22.1
2012-06-13 10:25:50 51°31.27 2°52.485 237.1 0.1 129 22.1
2012-06-13 10:26:50 51°31.27 2°52.486 237.6 0.2 146 21.9
2012-06-13 10:27:50 51°31.27 2°52.485 239.1 0.3 305 21.6
2012-06-13 10:28:50 51°31.269 2°52.484 239.4 -999 113 21.9
2012-06-13 10:29:51 51°31.269 2°52.481 240.9 0.2 304 22.1
2012-06-13 10:30:50 51°31.268 2°52.48 240.5 0.2 140 22
2012-06-13 10:31:50 51°31.268 2°52.48 241 0.1 187 21.7
2012-06-13 10:32:51 51°31.269 2°52.48 241.4 0.1 334 22.1
2012-06-13 10:33:51 51°31.269 2°52.481 240.4 0.1 329 22
2012-06-13 10:34:50 51°31.269 2°52.483 239.4 0.1 274 21.6
2012-06-13 10:35:50 51°31.262 2°52.477 223.3 0.7 217 22.4
2012-06-13 10:36:50 51°31.251 2°52.471 206.9 0.7 201 21.5
2012-06-13 10:37:51 51°31.238 2°52.472 202.6 0.8 174 20.1
2012-06-13 10:38:50 51°31.226 2°52.47 199 1.6 182 21.8
2012-06-13 10:39:51 51°31.192 2°52.536 110.7 4.9 95 22
2012-06-13 10:40:50 51°31.228 2°52.644 50.8 4.5 48 22.4
2012-06-13 10:41:51 51°31.303 2°52.715 18.2 7.7 12 22.9
2012-06-13 10:42:51 51°31.452 2°52.671 346.8 10.2 347 23.1
2012-06-13 10:43:50 51°31.62 2°52.624 353.3 10.4 352 24.2
2012-06-13 10:44:50 51°31.794 2°52.595 354.9 10.6 355 22.2
2012-06-13 10:45:50 51°31.985 2°52.533 344.2 12.1 343 26.4
2012-06-13 10:46:50 51°32.178 2°52.431 342 12.1 342 27.2
2012-06-13 10:47:50 51°32.374 2°52.348 347.9 12.2 347 25.6
2012-06-13 10:48:50 51°32.571 2°52.273 344.8 12.2 345 29.1
2012-06-13 10:49:50 51°32.766 2°52.188 347.8 12.1 352 30.1
2012-06-13 10:50:50 51°32.967 2°52.242 19.8 12.5 20 31.8
2012-06-13 10:51:50 51°33.15 2°52.393 38.1 12.3 35 28.9
2012-06-13 10:52:50 51°33.301 2°52.608 45.7 12.3 43 31.9
2012-06-13 10:53:50 51°33.443 2°52.844 51.3 12.2 48 30.3
2012-06-13 10:54:50 51°33.572 2°53.099 57.1 12.4 54 30.9
2012-06-13 10:55:50 51°33.684 2°53.376 62.1 12.2 59 29.5
2012-06-13 10:56:50 51°33.784 2°53.665 63.5 12.4 63 30.6
2012-06-13 10:57:50 51°33.852 2°53.974 76.4 11.3 74 30.8
2012-06-13 10:58:50 51°33.892 2°54.156 64.9 4.8 61 27.5
2012-06-13 10:59:50 51°33.924 2°54.236 54.8 2.8 53 30.3
2012-06-13 11:00:50 51°33.946 2°54.284 52.2 1.8 57 30.7
2012-06-13 11:01:50 51°33.959 2°54.317 50.6 1.4 66 32.1
2012-06-13 11:02:50 51°33.969 2°54.34 47.3 0.8 44 31.4
2012-06-13 11:03:50 51°33.977 2°54.357 45.9 0.7 60 31.8
2012-06-13 11:04:50 51°33.982 2°54.373 47.6 0.6 70 30.6
2012-06-13 11:05:50 51°33.985 2°54.388 51.1 0.4 63 30
2012-06-13 11:06:50 51°33.986 2°54.401 54.7 0.6 102 30.2
2012-06-13 11:07:50 51°33.987 2°54.411 57.3 0.4 105 30.2
2012-06-13 11:08:50 51°33.986 2°54.42 61.9 0.1 81 29.4
2012-06-13 11:09:51 51°33.984 2°54.428 67.3 0.6 127 29.7
2012-06-13 11:10:50 51°33.982 2°54.434 71.6 0.2 110 29.4
2012-06-13 11:11:51 51°33.98 2°54.441 74.4 0.4 128 29.3
2012-06-13 11:12:50 51°33.978 2°54.447 74.6 0.5 120 29.2
2012-06-13 11:13:50 51°33.975 2°54.453 74.8 0.4 128 28.6
2012-06-13 11:14:50 51°33.971 2°54.459 73.4 0.6 139 29.4
2012-06-13 11:15:50 51°33.968 2°54.465 73.4 0.4 142 29.5
2012-06-13 11:16:50 51°33.966 2°54.468 71.8 0.2 167 29.1
2012-06-13 11:17:50 51°33.963 2°54.472 72 0.4 168 28.8
2012-06-13 11:18:50 51°33.959 2°54.473 73.5 0.1 222 29.1
2012-06-13 11:19:50 51°33.955 2°54.474 77.4 0.2 171 29.1
2012-06-13 11:20:50 51°33.951 2°54.475 79.8 0.1 216 27.8
2012-06-13 11:21:50 51°33.948 2°54.476 82.3 0.1 100 28.6
2012-06-13 11:22:50 51°33.945 2°54.479 83.5 0.1 102 29.1
2012-06-13 11:23:50 51°33.943 2°54.482 80.7 0.5 154 29.4
2012-06-13 11:24:50 51°33.94 2°54.486 77.8 0.1 53 28.4
2012-06-13 11:25:52 51°33.936 2°54.49 76.6 0.4 140 28.7
2012-06-13 11:26:54 51°33.934 2°54.493 73.1 0.1 140 -999
2012-06-13 11:27:51 51°33.931 2°54.496 74.3 0.1 119 28.5
2012-06-13 11:28:50 51°33.928 2°54.499 73.4 0.6 150 28.6
2012-06-13 11:29:51 51°33.924 2°54.501 75.3 0.2 178 28.4
2012-06-13 11:30:50 51°33.92 2°54.502 75.7 0.2 357 29.2
2012-06-13 11:31:50 51°33.917 2°54.503 77.7 0.1 333 29.5
2012-06-13 11:32:50 51°33.913 2°54.503 81 0.3 185 30.1
2012-06-13 11:33:50 51°33.91 2°54.503 81.3 0.1 313 29.7
2012-06-13 11:34:50 51°33.907 2°54.502 79.3 0.2 315 29.9
2012-06-13 11:35:50 51°33.903 2°54.501 79.1 0.6 175 30.4
2012-06-13 11:36:50 51°33.9 2°54.501 78.5 0.2 184 30.3
2012-06-13 11:37:50 51°33.896 2°54.501 76.1 0.3 165 30.3
2012-06-13 11:38:51 51°33.891 2°54.501 74.1 0.6 163 30.3
2012-06-13 11:39:50 51°33.889 2°54.5 73.2 0.5 170 30.2
2012-06-13 11:40:50 51°33.886 2°54.498 71.8 0.3 181 29.2
2012-06-13 11:41:50 51°33.882 2°54.497 74.1 0.2 237 29.9
2012-06-13 11:42:50 51°33.878 2°54.493 78.3 0.5 187 29.4
2012-06-13 11:43:50 51°33.873 2°54.49 81.5 0.1 239 29.6
2012-06-13 11:44:50 51°33.869 2°54.487 82.9 0.2 221 28.9
2012-06-13 11:45:51 51°33.864 2°54.483 82.9 0.2 259 29
2012-06-13 11:46:50 51°33.861 2°54.479 85 0.2 232 29
2012-06-13 11:47:51 51°33.857 2°54.475 83.8 0.4 186 29.6
2012-06-13 11:48:50 51°33.853 2°54.472 82.7 0.4 186 29.8
2012-06-13 11:49:51 51°33.85 2°54.468 80.4 0.3 184 30.1
2012-06-13 11:50:50 51°33.846 2°54.465 79.9 0.3 174 30.2
2012-06-13 11:51:50 51°33.842 2°54.466 75.2 0.1 112 29.3
2012-06-13 11:52:51 51°33.842 2°54.47 69.4 0.1 119 29.6
2012-06-13 11:53:50 51°33.841 2°54.477 65.1 0.2 62 29.6
2012-06-13 11:54:50 51°33.843 2°54.483 59.1 0.5 94 29.9
2012-06-13 11:55:50 51°33.846 2°54.491 53.2 0.3 77 29.1
2012-06-13 11:56:50 51°33.847 2°54.496 50.3 0.2 347 27.8
2012-06-13 11:57:50 51°33.846 2°54.498 51.6 0.1 203 28
2012-06-13 11:58:50 51°33.844 2°54.498 51.5 0.2 183 28.3
2012-06-13 11:59:50 51°33.842 2°54.498 53.9 0.3 321 28.2
2012-06-13 12:00:50 51°33.841 2°54.501 51 0.3 80 28.6
2012-06-13 12:01:51 51°33.843 2°54.506 50.7 0.4 102 27.9
2012-06-13 12:02:50 51°33.849 2°54.52 46.3 0.9 46 28.8
2012-06-13 12:03:50 51°33.861 2°54.534 38.7 0.6 22 29.5
2012-06-13 12:04:50 51°33.867 2°54.54 40 0.3 13 30.3
2012-06-13 12:05:51 51°33.868 2°54.543 45.7 0.1 116 29.7
2012-06-13 12:06:50 51°33.866 2°54.543 50 0.3 270 29.6
2012-06-13 12:07:50 51°33.861 2°54.541 54.5 0.4 183 30
2012-06-13 12:08:51 51°33.855 2°54.535 65.4 0.4 222 29.7
2012-06-13 12:09:50 51°33.847 2°54.526 75.6 0.9 202 29.1
2012-06-13 12:10:51 51°33.838 2°54.515 86.4 0.7 206 28.1
2012-06-13 12:11:50 51°33.83 2°54.512 87.2 0.9 181 28.3
2012-06-13 12:12:50 51°33.824 2°54.516 82.3 0.2 80 28.2
2012-06-13 12:13:50 51°33.822 2°54.522 73.1 0.5 118 29
2012-06-13 12:14:51 51°33.821 2°54.531 66.9 0.4 107 28.4
2012-06-13 12:15:50 51°33.839 2°54.569 46.9 4.7 42 29.6
2012-06-13 12:16:50 51°33.935 2°54.643 26.2 7.4 23 30.2
2012-06-13 12:17:50 51°34.043 2°54.749 42.8 7.7 39 30.4
2012-06-13 12:18:51 51°34.095 2°54.883 78.8 4 78 29.5
2012-06-13 12:19:50 51°34.092 2°54.957 97.7 2.2 106 30.6
2012-06-13 12:20:50 51°34.084 2°55.002 95.9 1.4 108 30.8
2012-06-13 12:21:50 51°34.078 2°55.029 87.5 0.8 113 30
2012-06-13 12:22:50 51°34.074 2°55.043 77.3 0.4 135 30.3
2012-06-13 12:23:51 51°34.071 2°55.045 72.7 0.1 192 29.9
2012-06-13 12:24:50 51°34.066 2°55.044 70.9 0.3 188 30.4
2012-06-13 12:25:51 51°34.061 2°55.04 64.8 0.3 194 30.8
2012-06-13 12:26:50 51°34.056 2°55.034 60.6 0.6 203 30.4
2012-06-13 12:27:50 51°34.049 2°55.027 60.8 0.9 189 31
2012-06-13 12:28:50 51°34.041 2°55.017 60.8 0.6 225 30.9
2012-06-13 12:29:50 51°34.032 2°55.006 63.6 0.8 213 30
2012-06-13 12:30:50 51°34.021 2°54.993 70.7 0.9 215 29.4
2012-06-13 12:31:50 51°34.01 2°54.979 78 1.1 204 28.2
2012-06-13 12:32:51 51°34 2°54.964 82.2 0.9 214 30.3
2012-06-13 12:33:50 51°33.989 2°54.949 86.9 1 218 30.9
2012-06-13 12:34:51 51°33.978 2°54.933 92.1 1.1 210 30.9
2012-06-13 12:35:51 51°33.968 2°54.918 92.4 0.7 233 29.7
2012-06-13 12:36:50 51°33.956 2°54.902 90.3 0.9 216 29.3
2012-06-13 12:37:51 51°33.944 2°54.887 88.6 0.9 214 28.5
2012-06-13 12:38:50 51°33.934 2°54.871 86.5 1.1 219 28.6
2012-06-13 12:39:51 51°33.922 2°54.855 86.3 1.1 211 28.5
2012-06-13 12:40:50 51°33.911 2°54.839 86.4 0.9 222 28.8
2012-06-13 12:41:51 51°33.9 2°54.823 85.1 0.7 240 27.6
2012-06-13 12:42:50 51°33.888 2°54.808 84.4 0.9 222 28.4
2012-06-13 12:43:50 51°33.876 2°54.793 83 0.7 228 28.6
2012-06-13 12:44:50 51°33.865 2°54.779 82.4 1.1 215 29.8
2012-06-13 12:45:50 51°33.854 2°54.765 81.5 0.8 214 30.4
2012-06-13 12:46:51 51°33.842 2°54.75 79.9 1 209 30.1
2012-06-13 12:47:50 51°33.831 2°54.736 78 0.9 212 29.7
2012-06-13 12:48:51 51°33.818 2°54.722 77.3 0.9 211 29.4
2012-06-13 12:49:50 51°33.806 2°54.707 77.3 1 216 28.8
2012-06-13 12:50:51 51°33.792 2°54.691 79.4 1.2 211 27.6
2012-06-13 12:51:50 51°33.779 2°54.675 80.1 1 216 26.7
2012-06-13 12:52:50 51°33.764 2°54.658 81.2 1 217 29.6
2012-06-13 12:53:50 51°33.751 2°54.641 80.9 1 231 28.8
2012-06-13 12:54:50 51°33.737 2°54.625 79.9 1.1 214 28.9
2012-06-13 12:55:51 51°33.725 2°54.608 79.2 1 221 26.8
2012-06-13 12:56:50 51°33.712 2°54.596 82.3 1 177 28.1
2012-06-13 12:57:51 51°33.704 2°54.604 71.1 0.6 109 26.8
2012-06-13 12:58:50 51°33.704 2°54.622 58.4 0.8 83 27.7
2012-06-13 12:59:51 51°33.707 2°54.636 51.6 0.2 93 27.9
2012-06-13 13:00:50 51°33.706 2°54.642 48.8 0.5 129 28.4
2012-06-13 13:01:50 51°33.704 2°54.641 47.3 0.2 235 27.8
2012-06-13 13:02:50 51°33.699 2°54.638 48 0.4 197 28.5
2012-06-13 13:03:50 51°33.693 2°54.632 48.9 0.5 239 27.5
2012-06-13 13:04:51 51°33.686 2°54.626 47.1 0.5 222 26.5
2012-06-13 13:05:51 51°33.685 2°54.627 41 0.4 89 27.3
2012-06-13 13:06:50 51°33.692 2°54.63 33.5 0.5 25 27.3
2012-06-13 13:07:51 51°33.698 2°54.632 30.8 0.3 335 27.7
2012-06-13 13:08:51 51°33.699 2°54.631 33.5 0.2 131 27.8
2012-06-13 13:09:50 51°33.7 2°54.627 32.6 0.1 208 27.8
2012-06-13 13:10:51 51°33.699 2°54.624 42.4 0.2 190 27.5
2012-06-13 13:11:50 51°33.695 2°54.623 57.4 0.4 160 27.1
2012-06-13 13:12:50 51°33.689 2°54.625 71.9 0.5 161 26.8
2012-06-13 13:13:51 51°33.684 2°54.642 66.1 0.8 97 26.7
2012-06-13 13:14:50 51°33.686 2°54.66 55.2 0.3 91 28.2
2012-06-13 13:15:12 51°12.199 2°53.338 128.5 -999 -999 10
2012-06-13 13:16:00 51°33.683 2°54.666 52.4 0.2 168 28.4
2012-06-13 13:17:00 51°33.679 2°54.667 49.3 0.3 173 28.3
2012-06-13 13:18:00 51°33.674 2°54.662 45.8 0.4 225 28.1
2012-06-13 13:19:00 51°33.704 2°54.667 359.2 4.1 345 28.5
2012-06-13 13:20:00 51°33.786 2°54.588 332 6.7 320 29.7
2012-06-13 13:21:00 51°33.848 2°54.419 284.8 8.6 278 29.1
2012-06-13 13:22:00 51°33.848 2°54.158 268.3 10.7 265 29.3
2012-06-13 13:23:00 51°33.819 2°53.862 260.7 11.6 257 29.3
2012-06-13 13:24:00 51°33.758 2°53.571 248.6 11.5 246 31.3
2012-06-13 13:25:00 51°33.666 2°53.3 240.2 11.6 240 30.9
2012-06-13 13:26:00 51°33.569 2°53.033 240.7 11.5 242 31.3
2012-06-13 13:27:00 51°33.475 2°52.763 241.1 11.7 239 30.7
2012-06-13 13:28:00 51°33.385 2°52.487 245.7 11.7 241 31.1
2012-06-13 13:29:00 51°33.306 2°52.202 247.5 11.6 247 32
2012-06-13 13:30:00 51°33.202 2°51.945 225 11.6 226 32.9
2012-06-13 13:31:00 51°33.038 2°51.81 189.5 11.1 190 30.9
2012-06-13 13:32:00 51°32.851 2°51.783 178.5 11.3 181 31.2
2012-06-13 13:32:59 51°32.664 2°51.782 176.3 11.7 180 28.6
2012-06-13 13:33:59 51°32.473 2°51.762 182.2 11.5 184 28
2012-06-13 13:35:00 51°32.279 2°51.737 181.2 11.6 184 29.2
2012-06-13 13:36:00 51°32.088 2°51.716 181.5 11.5 186 27.1
2012-06-13 13:37:00 51°31.898 2°51.697 178 11.2 182 28.9
2012-06-13 13:37:59 51°31.713 2°51.691 176.6 11.5 180 26.6
2012-06-13 13:38:59 51°31.524 2°51.679 181.4 11.6 183 22.2
2012-06-13 13:40:00 51°31.329 2°51.651 183 11.5 182 23.6
2012-06-13 13:41:00 51°31.134 2°51.67 170.1 12.7 172 23.6
2012-06-13 13:42:00 51°30.919 2°51.713 173.8 13.1 177 17
2012-06-13 13:43:00 51°30.703 2°51.732 172.7 12.8 174 20.8
2012-06-13 13:44:00 51°30.484 2°51.744 175 13.3 179 19.7
2012-06-13 13:45:00 51°30.266 2°51.757 174.2 13.2 177 26.1
2012-06-13 13:46:00 51°30.049 2°51.76 176.5 12.7 179 29.5
2012-06-13 13:47:00 51°29.834 2°51.774 174.3 12.7 177 30.5
2012-06-13 13:48:00 51°29.618 2°51.782 174.7 12.7 181 29.7
2012-06-13 13:49:00 51°29.402 2°51.787 176.7 13.2 181 29.7
2012-06-13 13:50:00 51°29.185 2°51.777 175.6 12.7 178 29.8
2012-06-13 13:51:00 51°28.967 2°51.789 174.3 13.4 177 30.2
2012-06-13 13:52:00 51°28.75 2°51.798 173.4 12.8 178 28.5
2012-06-13 13:53:00 51°28.536 2°51.814 174.9 13.1 180 28.7
2012-06-13 13:54:00 51°28.323 2°51.813 173.3 12.6 178 26.4
2012-06-13 13:55:00 51°28.109 2°51.842 169.3 12.7 175 24.6
2012-06-13 13:56:00 51°27.898 2°51.873 170.1 12.8 176 21.9
2012-06-13 13:57:00 51°27.689 2°51.91 168.1 12.6 175 20.9
2012-06-13 13:58:00 51°27.477 2°51.946 167.4 13.1 174 19.8
2012-06-13 13:59:00 51°27.267 2°51.986 167.2 12.6 171 21.3
2012-06-13 14:00:00 51°27.054 2°52.011 171.6 13 176 19.1
2012-06-13 14:01:00 51°26.841 2°52.038 166.5 12.5 168 25.6
2012-06-13 14:02:00 51°26.648 2°52.144 142.8 11.9 146 27.6
2012-06-13 14:03:00 51°26.499 2°52.315 139.7 8.2 150 26.4
2012-06-13 14:04:00 51°26.423 2°52.332 158.8 2.7 188 27.2
2012-06-13 14:05:00 51°26.394 2°52.316 125.8 1.7 202 27.1
2012-06-13 14:06:00 51°26.371 2°52.297 111.5 1.5 212 26.8
2012-06-13 14:07:00 51°26.351 2°52.272 98.3 1.6 224 27.4
2012-06-13 14:08:00 51°26.333 2°52.239 89.9 1.7 231 26.8
2012-06-13 14:09:00 51°26.309 2°52.231 118.1 2.1 165 26.6
2012-06-13 14:10:00 51°26.248 2°52.26 147.7 5.5 165 27.1
2012-06-13 14:11:00 51°26.102 2°52.307 164.1 10.3 172 27
2012-06-13 14:12:00 51°25.924 2°52.35 163.4 11.5 166 26.7
2012-06-13 14:13:00 51°25.727 2°52.395 170.3 12.6 178 26.2
2012-06-13 14:14:00 51°25.521 2°52.368 183 12.6 189 24.1
2012-06-13 14:15:00 51°25.315 2°52.323 183.7 12.5 189 25.1
2012-06-13 14:16:00 51°25.106 2°52.283 180.8 12.5 182 25
2012-06-13 14:17:00 51°24.897 2°52.271 175.8 12.6 180 23.9
2012-06-13 14:18:00 51°24.684 2°52.257 180.1 12.6 186 20.3
2012-06-13 14:19:00 51°24.471 2°52.226 179.4 12.9 184 18
2012-06-13 14:20:00 51°24.257 2°52.199 178.4 12.9 182 17.2
2012-06-13 14:21:00 51°24.044 2°52.167 180.9 13.2 184 18.2
2012-06-13 14:22:00 51°23.829 2°52.137 180.8 12.7 184 17.3
2012-06-13 14:23:00 51°23.618 2°52.104 181.5 12.9 185 16.2
2012-06-13 14:24:00 51°23.399 2°52.067 181.4 13.2 187 17.9
2012-06-13 14:25:00 51°23.177 2°52.034 179.3 13.2 183 22
2012-06-13 14:26:00 51°22.955 2°52.015 178.4 13.2 182 23.2
2012-06-13 14:27:00 51°22.735 2°51.992 180.2 13 183 22.9
2012-06-13 14:28:00 51°22.516 2°51.968 179.7 13.2 184 22.7
2012-06-13 14:29:00 51°22.296 2°51.929 180.2 13.4 185 23.4
2012-06-13 14:30:00 51°22.077 2°51.908 176.2 13.2 184 23.4
2012-06-13 14:31:00 51°21.857 2°51.88 180.3 13.1 187 23.8
2012-06-13 14:32:00 51°21.64 2°51.85 179 13.1 180 22.9
2012-06-13 14:33:00 51°21.424 2°51.84 174.4 12.8 182 21
2012-06-13 14:34:00 51°21.206 2°51.824 179.2 13.1 183 18.8
2012-06-13 14:35:00 51°20.99 2°51.803 179.6 12.9 185 16.8
2012-06-13 14:36:00 51°20.772 2°51.79 175 13 182 15.1
2012-06-13 14:37:00 51°20.557 2°51.786 174.3 12.9 177 13.7
2012-06-13 14:38:01 51°20.338 2°51.789 173.9 13.4 178 13.1
2012-06-13 14:39:00 51°20.127 2°51.788 176.2 12.9 181 14.1
2012-06-13 14:40:00 51°19.91 2°51.765 178.2 13.1 182 15.1
2012-06-13 14:41:00 51°19.696 2°51.77 171.1 12.6 176 15.4
2012-06-13 14:42:00 51°19.487 2°51.822 162 12.2 168 15.4
2012-06-13 14:43:00 51°19.282 2°51.895 161.8 12.5 166 15.1
2012-06-13 14:44:00 51°19.079 2°51.972 160.7 12.8 166 14.5
2012-06-13 14:45:00 51°18.876 2°52.04 161.9 12.3 167 13.3
2012-06-13 14:46:00 51°18.67 2°52.102 164.9 12.8 170 12.3
2012-06-13 14:47:00 51°18.462 2°52.158 166.8 13 172 11.6
2012-06-13 14:48:00 51°18.254 2°52.218 164.3 12.8 170 11.3
2012-06-13 14:49:00 51°18.045 2°52.278 166.2 12.6 170 10.8
2012-06-13 14:50:00 51°17.838 2°52.341 164.1 12.6 171 10.1
2012-06-13 14:51:00 51°17.632 2°52.424 158.2 12.5 164 10.4
2012-06-13 14:52:00 51°17.43 2°52.524 153.5 12.2 162 10.1
2012-06-13 14:53:00 51°17.229 2°52.624 157.8 12.6 164 9.6
2012-06-13 14:54:00 51°17.031 2°52.734 155 12.7 159 9.8
2012-06-13 14:55:00 51°16.838 2°52.848 152 12.3 161 9.3
2012-06-13 14:56:01 51°16.641 2°52.966 153.6 12.7 160 11.1
2012-06-13 14:57:00 51°16.454 2°53.085 150.1 12.1 157 11.9
2012-06-13 14:58:00 51°16.273 2°53.22 150.1 12 157 12
2012-06-13 14:59:00 51°16.085 2°53.333 151.8 12.4 159 11.9
2012-06-13 15:00:00 51°15.897 2°53.453 149.2 12.2 155 11.8
2012-06-13 15:01:00 51°15.718 2°53.589 146.7 11.7 155 11.5
2012-06-13 15:02:00 51°15.541 2°53.728 146.2 11.6 154 11
2012-06-13 15:03:00 51°15.366 2°53.871 145.6 11.9 149 9.9
2012-06-13 15:04:00 51°15.202 2°54.038 137.6 11.8 144 9.3
2012-06-13 15:05:00 51°15.051 2°54.227 134.1 11.5 139 8.7
2012-06-13 15:06:00 51°14.908 2°54.43 130.7 11.7 137 10
2012-06-13 15:07:00 51°14.767 2°54.637 129.6 11.1 138 10.7
2012-06-13 15:08:01 51°14.622 2°54.845 133.2 11.9 139 11.2
2012-06-13 15:09:01 51°14.482 2°55.053 134.7 11.6 134 -999
2012-06-13 15:10:04 51°14.319 2°55.246 147.4 11.6 148 -999
2012-06-13 15:11:04 51°14.167 2°55.382 154 9.4 155 -999
2012-06-13 15:12:04 51°14.056 2°55.463 156.8 6 155 10.3
2012-06-13 15:13:04 51°13.968 2°55.528 157.2 6.6 155 -999
2012-06-13 15:14:04 51°13.864 2°55.6 154.9 6.2 153 -999
2012-06-13 15:15:04 51°13.779 2°55.681 144.7 5.8 143 -999
2012-06-13 15:16:04 51°13.712 2°55.789 130.9 5.7 129 -999
2012-06-13 15:17:04 51°13.664 2°55.898 123.4 4.4 122 -999
2012-06-13 15:18:04 51°13.637 2°55.985 108.8 2.6 108 -999
2012-06-13 15:19:04 51°13.634 2°56.007 114.6 0.1 216 -999
2012-06-13 15:20:04 51°13.632 2°56.013 120.2 0.3 135 -999